Time;durP1;ratioP1;P1;durP2;ratioP2;P2;SDS_P1;SDS_P2;PMS_P1;PMS_P2;Temp;Humidity;BMP_temperature;BMP_pressure;BME280_temperature;BME280_humidity;BME280_pressure;Samples;Min_cycle;Max_cycle;Signal;HPM_P1;HPM_P2
2023/05/27 00:00:06;;;;;;;18.92;3.92;;;;;;;9.57;100.00;102871.56;5050716;28;20657;-51
2023/05/27 00:02:32;;;;;;;14.45;4.97;;;;;;;9.51;100.00;102857.31;5048759;28;20190;-51
2023/05/27 00:04:57;;;;;;;17.45;4.38;;;;;;;9.51;100.00;102857.31;5049665;28;20203;-52
2023/05/27 00:07:23;;;;;;;20.02;5.20;;;;;;;9.50;100.00;102872.47;5051490;28;20566;-51
2023/05/27 00:09:48;;;;;;;18.77;4.30;;;;;;;9.52;100.00;102885.84;5050447;28;20209;-52
2023/05/27 00:12:15;;;;;;;12.88;3.75;;;;;;;9.60;100.00;102874.25;5051140;28;20179;-51
2023/05/27 00:14:40;;;;;;;15.95;4.50;;;;;;;9.28;100.00;102855.53;5048693;28;20268;-50
2023/05/27 00:17:06;;;;;;;13.57;3.88;;;;;;;9.38;100.00;102860.00;5051104;28;20637;-49
2023/05/27 00:19:32;;;;;;;18.27;4.18;;;;;;;9.37;100.00;102879.63;5050840;28;20546;-50
2023/05/27 00:21:58;;;;;;;12.35;3.78;;;;;;;9.22;100.00;102876.94;5051063;28;20171;-51
2023/05/27 00:24:23;;;;;;;15.68;3.97;;;;;;;9.20;100.00;102879.59;5048461;28;20204;-50
2023/05/27 00:26:49;;;;;;;16.90;4.90;;;;;;;9.25;100.00;102876.97;5045798;28;20629;-50
2023/05/27 00:29:16;;;;;;;12.65;3.60;;;;;;;9.33;100.00;102882.28;5050601;28;20206;-51
2023/05/27 00:31:42;;;;;;;11.80;3.80;;;;;;;9.32;100.00;102888.56;5050859;28;20548;-47
2023/05/27 00:34:07;;;;;;;11.60;3.53;;;;;;;9.40;100.00;102878.72;5009955;23;20228;-45
2023/05/27 00:36:33;;;;;;;14.73;3.83;;;;;;;9.14;100.00;102871.59;5000742;28;20205;-47
2023/05/27 00:38:58;;;;;;;15.57;4.10;;;;;;;9.22;100.00;102866.25;5003829;28;20529;-46
2023/05/27 00:41:24;;;;;;;17.95;4.20;;;;;;;9.11;100.00;102876.94;5000189;28;20252;-46
2023/05/27 00:43:50;;;;;;;10.98;3.70;;;;;;;9.19;100.00;102880.50;4999073;28;20181;-44
2023/05/27 00:46:15;;;;;;;11.68;3.80;;;;;;;9.23;100.00;102879.63;5008665;28;20191;-44
2023/05/27 00:48:41;;;;;;;14.77;4.00;;;;;;;9.11;100.00;102863.56;4997688;28;20710;-45
2023/05/27 00:51:07;;;;;;;14.27;4.13;;;;;;;9.17;100.00;102866.25;5002973;28;20191;-46
2023/05/27 00:53:40;;;;;;;14.80;4.22;;;;;;;9.17;100.00;102879.63;4998739;28;20176;-44
2023/05/27 00:56:06;;;;;;;13.73;4.72;;;;;;;9.10;100.00;102874.28;5006854;28;20222;-45
2023/05/27 00:58:32;;;;;;;11.50;4.32;;;;;;;8.91;100.00;102863.53;5001951;28;20169;-46
2023/05/27 01:00:58;;;;;;;13.93;3.85;;;;;;;8.93;100.00;102863.56;4998749;28;20232;-45
2023/05/27 01:03:24;;;;;;;12.52;4.13;;;;;;;8.83;100.00;102867.97;5001528;28;20224;-45
2023/05/27 01:06:00;;;;;;;10.80;3.70;;;;;;;8.89;100.00;102868.00;5000333;28;20513;-44
2023/05/27 01:08:37;;;;;;;9.02;3.60;;;;;;;8.91;100.00;102863.53;4998559;28;20267;-46
2023/05/27 01:11:05;;;;;;;12.48;3.80;;;;;;;8.75;100.00;102859.97;4994988;28;20264;-44
2023/05/27 01:13:39;;;;;;;11.35;3.83;;;;;;;8.62;100.00;102864.38;5003133;28;20192;-44
2023/05/27 01:16:14;;;;;;;17.92;4.03;;;;;;;8.57;100.00;102873.25;5002077;28;20471;-46
2023/05/27 01:18:44;;;;;;;13.38;3.75;;;;;;;8.62;100.00;102869.72;4996561;28;20180;-45
2023/05/27 01:21:14;;;;;;;11.85;3.60;;;;;;;8.53;100.00;102866.16;5001386;28;20495;-46
2023/05/27 01:23:46;;;;;;;16.98;4.13;;;;;;;8.53;100.00;102868.81;4998699;28;20247;-47
2023/05/27 01:26:11;;;;;;;10.98;3.78;;;;;;;8.56;100.00;102877.72;5000328;28;20197;-46
2023/05/27 01:28:37;;;;;;;8.48;3.22;;;;;;;8.57;100.00;102875.94;4998096;28;20219;-45
2023/05/27 01:31:13;;;;;;;14.65;4.43;;;;;;;8.60;100.00;102875.97;5002973;28;20222;-47
2023/05/27 01:33:42;;;;;;;16.75;3.97;;;;;;;8.60;100.00;102855.47;4994054;28;20196;-46
2023/05/27 01:36:16;;;;;;;19.50;5.22;;;;;;;8.44;100.00;102865.22;5002232;28;20201;-46
2023/05/27 01:38:45;;;;;;;13.63;3.83;;;;;;;8.52;100.00;102872.38;4997084;28;20523;-46
2023/05/27 01:41:13;;;;;;;16.98;4.47;;;;;;;8.41;100.00;102875.88;4998054;28;20200;-47
2023/05/27 01:43:40;;;;;;;16.13;4.53;;;;;;;8.43;100.00;102858.09;5002602;28;20232;-46
2023/05/27 01:46:06;;;;;;;15.95;3.85;;;;;;;8.35;100.00;102864.25;4999045;28;20212;-47
2023/05/27 01:48:31;;;;;;;17.27;4.63;;;;;;;8.35;100.00;102858.91;4994425;28;20205;-45
2023/05/27 01:50:57;;;;;;;11.45;4.28;;;;;;;8.48;100.00;102870.56;5000263;28;20282;-44
2023/05/27 01:53:24;;;;;;;9.18;3.80;;;;;;;8.52;100.00;102867.91;4998837;28;20275;-46
2023/05/27 01:55:49;;;;;;;16.83;4.35;;;;;;;8.39;100.00;102860.69;5001948;28;20209;-45
2023/05/27 01:58:15;;;;;;;18.52;4.97;;;;;;;8.28;100.00;102866.00;5008912;28;20189;-44
2023/05/27 02:00:41;;;;;;;14.70;4.70;;;;;;;8.19;100.00;102872.19;4989649;28;20188;-46
2023/05/27 02:03:06;;;;;;;13.77;4.15;;;;;;;8.19;100.00;102872.19;4998908;28;20180;-48
2023/05/27 02:05:32;;;;;;;17.02;4.97;;;;;;;8.22;100.00;102869.56;5003902;28;20219;-46
2023/05/27 02:07:58;;;;;;;17.23;4.78;;;;;;;8.27;100.00;102855.34;5006076;28;20200;-46
2023/05/27 02:10:24;;;;;;;16.90;4.40;;;;;;;8.23;100.00;102859.75;5002335;28;20205;-48
2023/05/27 02:12:50;;;;;;;16.70;4.18;;;;;;;8.20;100.00;102871.31;4998719;28;20223;-47
2023/05/27 02:15:16;;;;;;;15.27;4.93;;;;;;;8.27;100.00;102869.56;5000411;28;20700;-47
2023/05/27 02:17:44;;;;;;;16.15;4.28;;;;;;;8.02;100.00;102864.13;5001241;28;20174;-45
2023/05/27 02:20:11;;;;;;;16.98;4.28;;;;;;;8.20;100.00;102860.66;5006706;28;20189;-46
2023/05/27 02:22:36;;;;;;;20.20;4.88;;;;;;;8.20;100.00;102866.00;5000107;28;20183;-47
2023/05/27 02:25:02;;;;;;;10.15;4.13;;;;;;;8.32;100.00;102862.47;4996192;28;20198;-45
2023/05/27 02:27:28;;;;;;;17.35;4.63;;;;;;;8.25;100.00;102869.56;5006343;28;20243;-45
2023/05/27 02:29:54;;;;;;;17.67;4.55;;;;;;;8.18;100.00;102864.19;4999893;28;20213;-45
2023/05/27 02:32:19;;;;;;;20.52;4.68;;;;;;;8.22;100.00;102850.88;5000880;28;20196;-47
2023/05/27 02:34:45;;;;;;;15.93;4.90;;;;;;;8.23;100.00;102865.09;4999508;28;20760;-46
2023/05/27 02:37:11;;;;;;;14.70;4.05;;;;;;;8.23;100.00;102860.66;5007417;28;20211;-46
2023/05/27 02:39:38;;;;;;;16.15;5.38;;;;;;;8.11;100.00;102859.69;5001041;28;20181;-45
2023/05/27 02:42:06;;;;;;;15.45;4.95;;;;;;;8.01;100.00;102853.44;4987413;28;20181;-45
2023/05/27 02:44:31;;;;;;;18.50;4.63;;;;;;;8.11;100.00;102867.72;5010664;28;20259;-46
2023/05/27 02:46:57;;;;;;;16.25;4.60;;;;;;;8.10;100.00;102863.28;4998986;28;20264;-46
2023/05/27 02:49:22;;;;;;;18.05;4.65;;;;;;;8.12;100.00;102854.38;5003745;28;20235;-46
2023/05/27 02:51:48;;;;;;;18.20;4.50;;;;;;;7.99;100.00;102860.53;4999173;28;20173;-47
2023/05/27 02:54:14;;;;;;;22.73;4.80;;;;;;;7.93;100.00;102866.72;5003139;28;20259;-48
2023/05/27 02:56:40;;;;;;;19.00;4.93;;;;;;;7.98;100.00;102861.41;5001358;28;20187;-46
2023/05/27 02:59:05;;;;;;;16.92;4.25;;;;;;;8.01;100.00;102869.44;4998901;28;20209;-48
2023/05/27 03:01:31;;;;;;;15.05;4.93;;;;;;;7.96;100.00;102864.09;5000906;28;20242;-50
2023/05/27 03:03:56;;;;;;;10.45;4.55;;;;;;;7.95;100.00;102862.28;5007443;28;20180;-50
2023/05/27 03:06:22;;;;;;;21.35;5.53;;;;;;;7.99;100.00;102865.88;4996334;28;20228;-48
2023/05/27 03:08:47;;;;;;;16.83;4.40;;;;;;;7.81;100.00;102858.66;5008241;28;20240;-49
2023/05/27 03:11:13;;;;;;;20.48;5.88;;;;;;;7.87;100.00;102860.47;5006676;28;20275;-48
2023/05/27 03:13:38;;;;;;;20.52;5.47;;;;;;;7.91;100.00;102859.59;4999316;28;20181;-50
2023/05/27 03:16:05;;;;;;;17.10;4.88;;;;;;;7.94;100.00;102851.63;4999266;28;20212;-52
2023/05/27 03:18:31;;;;;;;17.40;5.57;;;;;;;7.94;100.00;102859.63;4992742;28;20199;-50
2023/05/27 03:20:56;;;;;;;21.08;5.25;;;;;;;7.97;100.00;102852.50;4996641;28;20186;-52
2023/05/27 03:23:22;;;;;;;12.30;4.72;;;;;;;7.99;100.00;102853.41;5000753;28;20169;-51
2023/05/27 03:25:48;;;;;;;13.02;4.30;;;;;;;8.00;100.00;102852.56;5005905;28;20211;-50
2023/05/27 03:28:16;;;;;;;13.50;4.88;;;;;;;7.88;100.00;102870.28;5002219;28;20178;-48
2023/05/27 03:30:43;;;;;;;20.00;5.07;;;;;;;7.68;100.00;102862.16;5004273;28;20613;-49
2023/05/27 03:33:10;;;;;;;18.38;4.70;;;;;;;7.70;100.00;102847.94;4997394;28;20185;-50
2023/05/27 03:35:37;;;;;;;17.20;5.03;;;;;;;7.82;100.00;102857.78;5002723;28;20279;-48
2023/05/27 03:38:04;;;;;;;17.95;5.03;;;;;;;7.87;100.00;102872.06;4999961;28;20204;-49
2023/05/27 03:40:30;;;;;;;19.65;6.53;;;;;;;7.89;100.00;102866.69;4998677;28;20201;-50
2023/05/27 03:42:56;;;;;;;12.38;3.80;;;;;;;7.96;100.00;102864.09;5005926;28;20227;-49
2023/05/27 03:45:22;;;;;;;19.73;5.38;;;;;;;8.00;100.00;102860.56;4998350;28;20209;-48
2023/05/27 03:47:48;;;;;;;16.63;4.68;;;;;;;8.07;100.00;102864.16;4998483;28;20188;-49
2023/05/27 03:50:15;;;;;;;15.10;5.40;;;;;;;8.11;100.00;102867.72;4991849;28;20567;-50
2023/05/27 03:52:40;;;;;;;19.73;5.40;;;;;;;7.96;100.00;102868.50;4999860;28;20185;-50
2023/05/27 03:55:06;;;;;;;14.23;4.35;;;;;;;7.89;100.00;102864.03;4999798;28;20327;-48
2023/05/27 03:57:33;;;;;;;14.73;4.57;;;;;;;7.99;100.00;102861.44;5000197;28;20248;-49
2023/05/27 03:59:59;;;;;;;12.75;4.65;;;;;;;8.02;100.00;102852.53;5002382;28;20605;-48
2023/05/27 04:02:25;;;;;;;20.80;5.13;;;;;;;8.01;100.00;102866.78;5004448;28;20193;-49
2023/05/27 04:04:52;;;;;;;20.65;5.25;;;;;;;8.03;100.00;102855.22;5000667;28;20644;-49
2023/05/27 04:07:19;;;;;;;18.48;6.07;;;;;;;8.08;100.00;102857.91;5001269;28;20180;-49
2023/05/27 04:09:45;;;;;;;20.02;5.40;;;;;;;8.10;100.00;102863.28;4999588;28;20842;-51
2023/05/27 04:12:10;;;;;;;19.45;5.30;;;;;;;8.24;100.00;102865.13;4999707;28;20224;-50
2023/05/27 04:14:36;;;;;;;23.00;5.88;;;;;;;8.25;100.00;102869.56;4999268;28;20224;-49
2023/05/27 04:17:01;;;;;;;22.90;5.47;;;;;;;8.27;100.00;102861.56;5001256;28;20176;-49
2023/05/27 04:19:27;;;;;;;15.80;5.03;;;;;;;8.37;100.00;102854.47;4994844;28;20308;-47
2023/05/27 04:21:52;;;;;;;24.98;6.57;;;;;;;8.37;100.00;102859.81;5003638;28;20552;-48
2023/05/27 04:24:18;;;;;;;21.38;6.43;;;;;;;8.37;100.00;102873.16;4999426;28;20215;-47
2023/05/27 04:26:45;;;;;;;25.35;5.80;;;;;;;8.38;100.00;102875.84;4997547;28;20196;-48
2023/05/27 04:29:12;;;;;;;20.58;5.18;;;;;;;8.38;100.00;102859.81;4999399;28;20223;-48
2023/05/27 04:31:39;;;;;;;26.20;6.15;;;;;;;8.53;100.00;102872.38;5001989;28;20181;-48
2023/05/27 04:34:11;;;;;;;25.17;6.30;;;;;;;8.57;100.00;102875.94;5005655;28;20291;-48
2023/05/27 04:36:37;;;;;;;19.58;5.40;;;;;;;8.68;100.00;102882.22;5002801;28;20174;-49
2023/05/27 04:39:07;;;;;;;24.80;6.25;;;;;;;8.62;100.00;102880.41;5002803;28;20173;-49
2023/05/27 04:41:34;;;;;;;25.38;6.20;;;;;;;8.69;100.00;102873.31;5001215;28;20168;-48
2023/05/27 04:44:19;;;;;;;16.85;5.30;;;;;;;8.86;100.00;102868.00;5000327;28;20201;-48
2023/05/27 04:46:47;;;;;;;31.30;6.32;;;;;;;8.83;100.00;102868.91;5003257;28;20177;-47
2023/05/27 04:49:13;;;;;;;23.65;6.22;;;;;;;8.84;100.00;102878.69;4983525;28;20208;-48
2023/05/27 04:51:39;;;;;;;23.88;5.95;;;;;;;8.85;100.00;102856.44;5009616;28;20180;-49
2023/05/27 04:54:05;;;;;;;19.02;5.55;;;;;;;9.02;100.00;102859.09;4995769;28;20189;-49
2023/05/27 04:56:32;;;;;;;25.23;5.95;;;;;;;9.13;100.00;102874.25;5011422;28;20185;-48
2023/05/27 04:58:59;;;;;;;29.85;6.43;;;;;;;9.09;100.00;102862.66;4998274;28;20694;-47
2023/05/27 05:01:39;;;;;;;27.13;6.00;;;;;;;9.03;100.00;102860.91;5000947;28;20592;-49
2023/05/27 05:04:12;;;;;;;25.27;6.30;;;;;;;9.28;100.00;102842.16;5006002;28;20619;-49
2023/05/27 05:06:43;;;;;;;20.15;5.30;;;;;;;9.41;100.00;102851.09;5001751;28;20264;-50
2023/05/27 05:09:09;;;;;;;18.40;5.70;;;;;;;9.32;100.00;102865.34;5000627;28;20760;-48
2023/05/27 05:11:36;;;;;;;31.80;6.88;;;;;;;9.25;100.00;102868.94;5000495;28;20268;-49
2023/05/27 05:14:02;;;;;;;24.35;5.28;;;;;;;9.41;100.00;102846.63;5001707;28;20164;-49
2023/05/27 05:16:28;;;;;;;29.40;6.20;;;;;;;9.60;100.00;102844.81;5004391;28;20195;-49
2023/05/27 05:18:53;;;;;;;20.85;5.88;;;;;;;9.67;100.00;102848.38;5002444;28;20504;-48
2023/05/27 05:21:20;;;;;;;32.97;6.82;;;;;;;9.46;100.00;102860.88;5004374;28;20669;-48
2023/05/27 05:23:47;;;;;;;29.60;6.65;;;;;;;9.48;100.00;102856.41;5006150;28;20209;-50
2023/05/27 05:26:12;;;;;;;30.30;6.97;;;;;;;9.72;100.00;102845.69;4998076;28;20211;-49
2023/05/27 05:28:40;;;;;;;27.40;6.68;;;;;;;9.75;100.00;102851.00;5001858;28;20577;-49
2023/05/27 05:31:07;;;;;;;25.55;5.72;;;;;;;10.03;100.00;102857.19;5000025;28;20204;-48
2023/05/27 05:33:33;;;;;;;24.75;5.80;;;;;;;9.80;100.00;102854.59;4996454;28;20694;-49
2023/05/27 05:35:58;;;;;;;27.92;6.43;;;;;;;9.92;100.00;102850.97;5001427;28;20217;-49
2023/05/27 05:38:32;;;;;;;23.98;6.18;;;;;;;9.69;100.00;102841.22;4998758;28;20189;-50
2023/05/27 05:40:57;;;;;;;29.98;7.32;;;;;;;9.81;100.00;102851.00;4998113;28;20235;-48
2023/05/27 05:43:23;;;;;;;27.52;6.25;;;;;;;9.73;100.00;102858.16;4999575;28;20179;-50
2023/05/27 05:45:50;;;;;;;28.13;6.85;;;;;;;9.89;100.00;102849.22;4997975;28;20204;-49
2023/05/27 05:48:18;;;;;;;27.30;6.82;;;;;;;9.98;100.00;102841.13;4999027;28;20255;-47
2023/05/27 05:50:44;;;;;;;28.42;5.90;;;;;;;10.05;100.00;102836.66;5001921;28;20196;-49
2023/05/27 05:53:10;;;;;;;30.23;7.47;;;;;;;9.89;100.00;102847.41;5000819;28;20279;-49
2023/05/27 05:55:36;;;;;;;20.55;6.03;;;;;;;10.03;100.00;102862.53;4998846;28;20704;-47
2023/05/27 05:58:01;;;;;;;27.90;7.32;;;;;;;10.01;100.00;102848.25;4997221;28;20208;-49
2023/05/27 06:00:28;;;;;;;27.35;6.38;;;;;;;9.96;100.00;102850.06;4996759;28;20204;-50
2023/05/27 06:03:08;;;;;;;27.58;5.90;;;;;;;9.95;100.00;102850.97;5000047;28;20263;-49
2023/05/27 06:05:46;;;;;;;27.58;7.00;;;;;;;9.96;100.00;102864.34;5004021;28;20208;-50
2023/05/27 06:08:12;;;;;;;33.22;6.43;;;;;;;9.97;100.00;102862.56;5003767;28;20187;-49
2023/05/27 06:10:41;;;;;;;29.05;6.65;;;;;;;10.24;100.00;102857.09;4999810;28;20212;-48
2023/05/27 06:13:10;;;;;;;29.02;7.15;;;;;;;10.45;100.00;102850.81;5010154;22;20221;-49
2023/05/27 06:15:37;;;;;;;26.23;7.13;;;;;;;10.15;100.00;102861.63;5009677;28;20204;-48
2023/05/27 06:18:04;;;;;;;29.08;6.55;;;;;;;10.04;100.00;102853.63;4989539;28;20643;-50
2023/05/27 06:20:30;;;;;;;23.85;6.22;;;;;;;10.56;100.00;102845.38;4989283;28;20613;-48
2023/05/27 06:22:55;;;;;;;28.65;6.90;;;;;;;10.92;100.00;102854.97;4990692;28;20170;-51
2023/05/27 06:25:29;;;;;;;29.60;6.35;;;;;;;10.98;100.00;102856.72;4990330;28;20300;-48
2023/05/27 06:27:59;;;;;;;27.67;6.82;;;;;;;10.77;100.00;102849.72;4989199;28;20181;-48
2023/05/27 06:30:25;;;;;;;26.88;6.32;;;;;;;10.51;100.00;102847.19;4978810;28;20198;-47
2023/05/27 06:32:52;;;;;;;33.83;6.30;;;;;;;10.82;100.00;102849.66;4976685;28;20288;-46
2023/05/27 06:35:20;;;;;;;29.48;6.40;;;;;;;10.96;100.00;102858.53;4986137;28;20293;-51
2023/05/27 06:37:46;;;;;;;23.48;5.85;;;;;;;10.99;100.00;102852.25;4979132;28;20174;-51
2023/05/27 06:40:12;;;;;;;29.77;6.57;;;;;;;10.88;100.00;102847.84;4969806;28;20178;-47
2023/05/27 06:42:38;;;;;;;26.83;6.50;;;;;;;10.61;100.00;102853.41;4985260;28;20201;-48
2023/05/27 06:45:17;;;;;;;21.50;6.07;;;;;;;11.07;100.00;102862.00;4989144;28;20204;-46
2023/05/27 06:47:45;;;;;;;28.08;5.90;;;;;;;11.17;100.00;102857.44;4989432;28;20209;-47
2023/05/27 06:50:11;;;;;;;25.35;5.70;;;;;;;11.19;100.00;102850.28;4985947;28;20301;-51
2023/05/27 06:52:37;;;;;;;24.30;6.07;;;;;;;11.28;100.00;102839.50;4969713;28;20538;-49
2023/05/27 06:55:41;;;;;;;37.60;20.60;;;;;;;11.50;100.00;102853.59;4930297;29;20215;-50
2023/05/27 06:58:09;;;;;;;44.75;32.03;;;;;;;11.93;100.00;102844.22;4930284;29;20267;-49
2023/05/27 07:00:50;;;;;;;38.00;24.55;;;;;;;12.07;100.00;102833.28;4949711;28;20197;-48
2023/05/27 07:03:45;;;;;;;27.52;13.82;;;;;;;12.10;100.00;102833.28;4974224;28;20296;-46
2023/05/27 07:06:14;;;;;;;25.88;7.22;;;;;;;11.77;100.00;102838.09;4969686;28;20194;-48
2023/05/27 07:08:47;;;;;;;25.90;6.13;;;;;;;11.90;99.61;102849.63;4969660;28;20194;-46
2023/05/27 07:11:26;;;;;;;23.10;5.55;;;;;;;11.52;98.74;102837.47;4982765;28;20188;-44
2023/05/27 07:13:55;;;;;;;20.40;5.63;;;;;;;12.25;97.99;102834.88;4988828;28;20205;-47
2023/05/27 07:16:24;;;;;;;26.92;6.60;;;;;;;12.48;96.46;102827.38;4989033;28;20284;-48
2023/05/27 07:18:50;;;;;;;23.48;5.70;;;;;;;12.50;94.93;102822.00;4989751;28;20161;-48
2023/05/27 07:21:17;;;;;;;25.30;6.20;;;;;;;12.14;93.69;102827.84;4992644;28;20170;-47
2023/05/27 07:23:42;;;;;;;26.55;6.03;;;;;;;12.40;93.73;102828.38;4986192;28;20257;-45
2023/05/27 07:26:27;;;;;;;28.52;6.30;;;;;;;12.47;92.88;102831.00;4991875;28;20253;-48
2023/05/27 07:28:53;;;;;;;21.88;5.78;;;;;;;12.98;92.30;102814.97;4973333;28;20299;-48
2023/05/27 07:31:31;;;;;;;20.88;5.80;;;;;;;12.98;90.80;102824.84;4991874;28;20185;-48
2023/05/27 07:34:03;;;;;;;26.25;6.32;;;;;;;12.82;90.18;102815.25;4991385;28;20189;-47
2023/05/27 07:36:29;;;;;;;27.20;6.32;;;;;;;13.12;88.83;102803.97;4989296;28;20209;-50
2023/05/27 07:38:54;;;;;;;23.48;5.97;;;;;;;13.16;88.57;102811.09;4991327;28;20181;-46
2023/05/27 07:41:21;;;;;;;23.30;6.25;;;;;;;12.51;88.27;102815.72;4990972;28;20213;-46
2023/05/27 07:43:47;;;;;;;30.38;6.50;;;;;;;12.73;88.91;102822.53;4975574;28;20205;-51
2023/05/27 07:46:13;;;;;;;25.02;6.18;;;;;;;13.63;87.95;102807.59;4991373;28;20326;-47
2023/05/27 07:48:40;;;;;;;21.38;6.00;;;;;;;13.48;85.82;102806.94;4988413;28;20273;-48
2023/05/27 07:51:06;;;;;;;19.80;5.43;;;;;;;13.67;85.46;102810.19;4977339;28;20233;-48
2023/05/27 07:53:32;;;;;;;25.42;5.82;;;;;;;13.73;84.18;102806.47;4989429;28;20214;-47
2023/05/27 07:55:58;;;;;;;21.17;5.32;;;;;;;13.69;82.96;102788.63;4981459;28;20220;-49
2023/05/27 07:58:24;;;;;;;17.52;5.10;;;;;;;13.86;82.09;102766.69;4988466;28;20602;-51
2023/05/27 08:01:04;;;;;;;22.98;5.88;;;;;;;13.83;82.12;102789.22;4985698;28;20215;-48
2023/05/27 08:03:29;;;;;;;26.58;5.88;;;;;;;13.42;82.34;102790.03;4991285;28;20196;-45
2023/05/27 08:06:20;;;;;;;23.45;6.53;;;;;;;14.04;82.45;102776.19;4982790;28;20182;-48
2023/05/27 08:09:11;;;;;;;25.27;5.30;;;;;;;14.57;80.78;102766.06;4991162;28;20193;-46
2023/05/27 08:11:55;;;;;;;20.52;5.10;;;;;;;13.99;79.82;102774.50;4984633;28;20205;-48
2023/05/27 08:14:45;;;;;;;19.05;4.90;;;;;;;14.51;78.02;102767.03;4985111;28;20226;-48
2023/05/27 08:17:29;;;;;;;19.00;5.10;;;;;;;14.31;77.39;102745.94;4976877;28;20221;-46
2023/05/27 08:20:01;;;;;;;27.58;6.03;;;;;;;13.74;78.07;102767.84;4983920;28;20193;-50
2023/05/27 08:22:56;;;;;;;27.25;6.18;;;;;;;14.41;78.19;102765.50;4987966;28;20178;-47
2023/05/27 08:25:40;;;;;;;25.40;5.93;;;;;;;14.36;77.35;102748.50;4978649;28;20229;-45
2023/05/27 08:28:23;;;;;;;17.88;4.95;;;;;;;14.45;76.79;102740.19;4980250;28;20542;-47
2023/05/27 08:31:21;;;;;;;19.00;6.00;;;;;;;14.66;77.04;102749.63;4991693;28;20201;-48
2023/05/27 08:33:51;;;;;;;24.77;6.40;;;;;;;14.10;77.14;102735.63;4985392;28;20193;-48
2023/05/27 08:36:19;;;;;;;22.20;5.90;;;;;;;14.22;77.46;102740.75;4990351;28;20193;-48
2023/05/27 08:38:46;;;;;;;19.30;5.82;;;;;;;14.75;75.93;102737.72;4978511;28;20177;-47
2023/05/27 08:41:17;;;;;;;25.02;5.80;;;;;;;14.67;75.70;102726.22;4985126;28;20182;-48
2023/05/27 08:43:44;;;;;;;19.73;5.72;;;;;;;14.69;76.57;102732.47;4979103;28;20232;-48
2023/05/27 08:46:11;;;;;;;22.52;5.57;;;;;;;15.05;75.41;102722.56;4983478;28;20276;-47
2023/05/27 08:48:37;;;;;;;19.90;4.85;;;;;;;15.15;74.19;102718.69;4990389;28;20173;-48
2023/05/27 08:51:03;;;;;;;24.02;5.72;;;;;;;14.92;73.49;102716.59;5001293;28;20189;-48
2023/05/27 08:53:31;;;;;;;18.70;4.95;;;;;;;15.00;73.68;102706.47;4976621;28;20189;-50
2023/05/27 08:55:59;;;;;;;26.65;5.53;;;;;;;14.63;74.06;102699.34;4990461;28;20213;-48
2023/05/27 08:58:26;;;;;;;19.05;5.70;;;;;;;15.00;74.03;102705.59;4987444;28;20636;-51
2023/05/27 09:00:54;;;;;;;18.38;5.25;;;;;;;15.09;73.54;102697.25;4986890;28;20185;-47
2023/05/27 09:03:23;;;;;;;23.17;5.38;;;;;;;15.38;72.74;102692.84;4975830;28;20720;-50
2023/05/27 09:05:48;;;;;;;15.38;5.05;;;;;;;15.26;71.68;102680.56;4988260;28;20301;-47
2023/05/27 09:08:14;;;;;;;20.08;4.97;;;;;;;15.56;71.47;102670.69;4987093;28;20196;-48
2023/05/27 09:10:41;;;;;;;24.70;5.45;;;;;;;15.39;70.28;102675.69;4982753;28;20194;-49
2023/05/27 09:13:07;;;;;;;17.30;4.70;;;;;;;15.54;70.42;102671.66;4981622;28;20240;-50
2023/05/27 09:15:34;;;;;;;22.02;5.93;;;;;;;16.54;68.61;102655.91;4980516;28;20622;-46
2023/05/27 09:18:02;;;;;;;15.63;4.50;;;;;;;15.83;68.45;102646.47;4977245;28;20525;-48
2023/05/27 09:20:29;;;;;;;19.15;5.40;;;;;;;15.39;69.54;102660.41;4980065;28;20177;-49
2023/05/27 09:23:03;;;;;;;25.73;5.63;;;;;;;15.25;70.01;102663.47;4981000;28;20557;-47
2023/05/27 09:25:29;;;;;;;19.55;4.88;;;;;;;14.86;70.45;102660.06;4978182;28;20320;-46
2023/05/27 09:27:55;;;;;;;18.20;5.05;;;;;;;15.40;71.07;102672.09;4979064;28;20655;-48
2023/05/27 09:30:21;;;;;;;17.83;4.13;;;;;;;14.97;70.63;102665.19;4979446;28;20190;-47
2023/05/27 09:32:47;;;;;;;20.40;5.50;;;;;;;14.89;70.46;102656.41;4982289;28;20196;-46
2023/05/27 09:35:15;;;;;;;16.98;5.05;;;;;;;15.64;70.25;102649.72;4982318;28;20296;-45
2023/05/27 09:37:41;;;;;;;20.25;5.63;;;;;;;15.70;69.89;102640.56;4978803;28;20612;-48
2023/05/27 09:40:10;;;;;;;19.90;5.75;;;;;;;15.24;70.15;102653.63;4978363;28;20201;-50
2023/05/27 09:42:42;;;;;;;21.70;5.65;;;;;;;14.62;72.33;102664.31;4978954;28;20597;-45
2023/05/27 09:45:12;;;;;;;21.20;5.22;;;;;;;15.39;72.73;102668.50;4980745;28;20592;-46
2023/05/27 09:47:40;;;;;;;15.48;4.60;;;;;;;15.42;71.73;102667.53;4977598;28;20660;-47
2023/05/27 09:50:09;;;;;;;21.27;4.90;;;;;;;15.33;71.17;102657.00;4982157;28;20204;-48
2023/05/27 09:52:37;;;;;;;17.67;4.95;;;;;;;15.90;70.97;102661.59;4981799;28;20285;-47
2023/05/27 09:55:05;;;;;;;21.55;5.45;;;;;;;15.64;71.12;102654.25;4986248;28;20578;-51
2023/05/27 09:57:31;;;;;;;21.55;5.28;;;;;;;15.79;72.03;102664.63;4976921;28;20219;-47
2023/05/27 09:59:59;;;;;;;21.38;5.57;;;;;;;15.73;71.63;102658.53;4979800;28;20199;-48
2023/05/27 10:02:25;;;;;;;21.55;5.38;;;;;;;15.55;70.56;102650.03;4985718;28;20241;-47
2023/05/27 10:04:52;;;;;;;19.20;5.15;;;;;;;15.37;71.07;102648.75;4976548;28;20874;-47
2023/05/27 10:07:20;;;;;;;19.92;5.35;;;;;;;15.50;70.84;102659.19;4981434;28;20557;-47
2023/05/27 10:09:46;;;;;;;22.83;5.45;;;;;;;15.61;71.09;102654.34;4979808;28;20194;-51
2023/05/27 10:12:14;;;;;;;23.80;5.38;;;;;;;15.18;69.48;102643.00;4987843;28;20205;-47
2023/05/27 10:14:43;;;;;;;19.92;4.85;;;;;;;15.89;69.21;102643.59;4981767;28;20280;-51
2023/05/27 10:17:08;;;;;;;16.45;5.32;;;;;;;15.92;68.00;102629.09;4986873;28;20576;-47
2023/05/27 10:19:34;;;;;;;19.05;5.57;;;;;;;15.86;67.18;102625.66;4978992;28;20190;-50
2023/05/27 10:22:09;;;;;;;16.70;4.97;;;;;;;16.22;66.83;102627.22;4974510;28;20185;-48
2023/05/27 10:24:35;;;;;;;19.85;5.38;;;;;;;15.78;67.77;102625.00;4975604;28;20234;-48
2023/05/27 10:27:02;;;;;;;21.20;5.15;;;;;;;15.67;69.37;102635.25;4975135;28;20652;-47
2023/05/27 10:29:38;;;;;;;18.77;5.40;;;;;;;15.67;69.50;102635.25;4979159;28;20193;-47
2023/05/27 10:32:04;;;;;;;20.98;5.90;;;;;;;15.84;68.83;102634.75;4977682;28;20189;-48
2023/05/27 10:34:37;;;;;;;17.15;4.95;;;;;;;15.83;67.27;102616.75;4977014;28;20189;-47
2023/05/27 10:37:03;;;;;;;12.93;4.50;;;;;;;15.52;68.00;102614.09;4982957;28;20181;-46
2023/05/27 10:39:29;;;;;;;15.32;5.10;;;;;;;15.45;68.94;102621.50;4978108;28;20750;-46
2023/05/27 10:41:59;;;;;;;19.83;5.07;;;;;;;15.69;68.77;102621.69;4981920;28;20249;-45
2023/05/27 10:44:37;;;;;;;17.77;5.05;;;;;;;15.60;68.96;102617.44;4981411;28;20197;-47
2023/05/27 10:47:04;;;;;;;20.30;5.05;;;;;;;15.39;70.84;102638.78;4980785;28;20197;-46
2023/05/27 10:49:38;;;;;;;19.52;4.90;;;;;;;15.32;70.99;102628.19;4995802;28;20278;-50
2023/05/27 10:52:17;;;;;;;17.85;4.68;;;;;;;15.72;70.87;102622.53;4985751;28;20201;-49
2023/05/27 10:54:48;;;;;;;16.92;5.03;;;;;;;15.67;68.80;102610.91;4980704;28;20258;-47
2023/05/27 10:57:14;;;;;;;18.50;4.85;;;;;;;15.78;67.71;102599.81;4981791;28;20775;-52
2023/05/27 10:59:47;;;;;;;24.45;4.88;;;;;;;15.97;67.01;102589.31;4979215;28;20252;-50
2023/05/27 11:02:12;;;;;;;18.73;5.03;;;;;;;15.69;67.48;102591.97;4984461;28;20189;-46
2023/05/27 11:04:38;;;;;;;14.88;4.53;;;;;;;15.83;68.02;102597.84;4975833;28;20214;-50
2023/05/27 11:07:04;;;;;;;17.00;5.28;;;;;;;15.97;68.03;102608.22;4983901;28;20674;-46
2023/05/27 11:09:31;;;;;;;18.67;5.82;;;;;;;15.66;68.41;102607.34;4986740;28;20216;-47
2023/05/27 11:12:02;;;;;;;17.63;4.72;;;;;;;15.73;68.95;102610.78;4982789;28;20195;-47
2023/05/27 11:14:28;;;;;;;15.30;4.57;;;;;;;15.73;68.02;102593.69;4983131;28;20213;-46
2023/05/27 11:16:53;;;;;;;21.80;5.65;;;;;;;15.76;68.45;102596.28;4985169;28;20182;-47
2023/05/27 11:19:20;;;;;;;17.80;4.90;;;;;;;15.59;67.70;102586.84;4985409;28;20277;-50
2023/05/27 11:21:47;;;;;;;18.85;5.32;;;;;;;15.74;68.19;102587.31;4979192;28;20213;-46